createdAt,value
2018-05-27T00:03:49.079Z,7.40
2018-05-27T00:08:50.404Z,6.03
2018-05-27T00:13:52.482Z,5.87
2018-05-27T00:18:53.775Z,6.27
2018-05-27T00:23:55.063Z,5.30
2018-05-27T00:28:56.375Z,7.37
2018-05-27T00:33:57.668Z,6.10
2018-05-27T00:38:58.977Z,8.07
2018-05-27T00:44:00.278Z,6.80
2018-05-27T00:49:02.332Z,5.30
2018-05-27T00:54:03.666Z,6.20
2018-05-27T00:59:04.987Z,5.23
2018-05-27T01:04:06.291Z,5.80
2018-05-27T01:09:07.619Z,4.70
2018-05-27T01:14:08.924Z,5.60
2018-05-27T01:19:10.271Z,4.90
2018-05-27T01:24:11.688Z,4.97
2018-05-27T01:29:12.982Z,7.90
2018-05-27T01:34:14.305Z,5.27
2018-05-27T01:39:15.604Z,6.43
2018-05-27T01:44:16.924Z,6.00
2018-05-27T01:49:18.228Z,5.73
2018-05-27T01:54:19.519Z,5.20
2018-05-27T01:59:20.811Z,4.93
2018-05-27T02:04:22.093Z,5.27
2018-05-27T02:09:23.412Z,5.43
2018-05-27T02:14:24.694Z,5.23
2018-05-27T02:19:25.994Z,5.33
2018-05-27T02:24:27.290Z,4.83
2018-05-27T02:29:29.313Z,6.73
2018-05-27T02:34:30.583Z,6.40
2018-05-27T02:39:31.891Z,6.27
2018-05-27T02:44:33.930Z,6.07
2018-05-27T02:49:35.240Z,5.97
2018-05-27T02:54:37.250Z,5.67
2018-05-27T02:59:38.534Z,6.53
2018-05-27T03:04:39.815Z,5.03
2018-05-27T03:09:41.092Z,6.83
2018-05-27T03:14:43.151Z,6.20
2018-05-27T03:19:44.499Z,6.90
2018-05-27T03:24:45.776Z,6.20
2018-05-27T03:29:47.084Z,10.20
2018-05-27T03:34:49.136Z,8.43
2018-05-27T03:39:50.427Z,11.90
2018-05-27T03:44:52.464Z,6.57
2018-05-27T03:49:53.771Z,16.27
2018-05-27T03:54:55.053Z,11.40
2018-05-27T03:59:56.339Z,11.23
2018-05-27T04:05:10.014Z,12.47
2018-05-27T04:10:11.267Z,10.03
2018-05-27T04:15:12.542Z,7.33
2018-05-27T04:20:13.836Z,9.37
2018-05-27T04:25:15.872Z,9.37
2018-05-27T04:30:17.972Z,9.93
2018-05-27T04:35:20.312Z,12.20
2018-05-27T04:40:22.495Z,15.00
2018-05-27T04:45:24.529Z,9.47
2018-05-27T04:50:25.831Z,17.90
2018-05-27T04:55:27.168Z,13.57
2018-05-27T05:00:28.472Z,17.80
2018-05-27T05:05:29.763Z,13.63
2018-05-27T05:10:31.054Z,7.60
2018-05-27T05:15:32.343Z,11.43
2018-05-27T05:20:33.623Z,9.50
2018-05-27T05:25:35.661Z,9.33
2018-05-27T05:30:36.951Z,10.70
2018-05-27T05:35:38.240Z,11.23
2018-05-27T05:40:39.559Z,8.60
2018-05-27T05:45:40.844Z,8.50
2018-05-27T05:50:42.891Z,9.50
2018-05-27T05:55:44.172Z,8.37
2018-05-27T06:00:45.455Z,9.50
2018-05-27T06:05:47.486Z,8.47
2018-05-27T06:10:48.778Z,11.77
2018-05-27T06:15:50.072Z,13.27
2018-05-27T06:20:52.095Z,11.37
2018-05-27T06:25:53.386Z,9.60
2018-05-27T06:30:54.667Z,8.63
2018-05-27T06:35:55.955Z,9.13
2018-05-27T06:40:58.001Z,8.27
2018-05-27T06:45:59.294Z,10.32
2018-05-27T06:51:00.596Z,7.33
2018-05-27T06:56:01.875Z,9.23
2018-05-27T07:01:03.184Z,7.90
2018-05-27T07:06:05.233Z,8.30
2018-05-27T07:11:06.498Z,6.80
2018-05-27T07:16:07.757Z,7.57
2018-05-27T07:21:09.076Z,9.83
2018-05-27T07:26:10.398Z,8.17
2018-05-27T07:31:11.691Z,7.67
2018-05-27T07:36:13.003Z,11.33
2018-05-27T07:41:14.286Z,10.53
2018-05-27T07:46:15.587Z,9.33
2018-05-27T07:51:17.630Z,15.87
2018-05-27T07:56:18.895Z,10.30
2018-05-27T08:01:20.195Z,10.00
2018-05-27T08:06:21.520Z,6.90
2018-05-27T08:11:22.851Z,6.40
2018-05-27T08:16:24.140Z,6.17
2018-05-27T08:21:25.535Z,6.20
2018-05-27T08:26:26.831Z,7.00
2018-05-27T08:31:28.155Z,11.13
2018-05-27T08:36:29.413Z,5.23
2018-05-27T08:41:30.725Z,5.30
2018-05-27T08:46:32.068Z,4.10
2018-05-27T08:51:34.136Z,6.17
2018-05-27T08:56:35.463Z,7.77
2018-05-27T09:01:37.491Z,5.23
2018-05-27T09:06:38.824Z,8.80
2018-05-27T09:11:40.070Z,4.53
2018-05-27T09:16:42.134Z,5.17
2018-05-27T09:21:43.467Z,4.47
2018-05-27T09:26:44.736Z,4.47
2018-05-27T09:31:46.008Z,4.90
2018-05-27T09:36:48.097Z,4.50
2018-05-27T09:41:49.408Z,4.13
2018-05-27T09:46:50.713Z,4.80
2018-05-27T09:51:51.974Z,3.90
2018-05-27T09:56:53.222Z,3.90
2018-05-27T10:01:55.313Z,4.37
2018-05-27T10:06:56.557Z,5.40
2018-05-27T10:11:57.823Z,5.67
2018-05-27T10:16:59.082Z,3.97
2018-05-27T10:22:00.384Z,5.60
2018-05-27T10:27:01.636Z,4.00
2018-05-27T10:32:02.912Z,5.77
2018-05-27T10:37:04.183Z,5.40
2018-05-27T10:42:05.531Z,3.60
2018-05-27T10:47:07.603Z,3.90
2018-05-27T10:52:08.925Z,3.53
2018-05-27T10:57:11.159Z,3.87
2018-05-27T11:02:12.451Z,4.23
2018-05-27T11:07:13.764Z,4.10
2018-05-27T11:12:15.055Z,3.62
2018-05-27T11:17:17.124Z,3.92
2018-05-27T11:22:18.380Z,3.50
2018-05-27T11:27:19.648Z,4.30
2018-05-27T11:32:20.909Z,3.20
2018-05-27T11:37:22.163Z,3.12
2018-05-27T11:42:23.460Z,2.78
2018-05-27T11:47:24.756Z,6.03
2018-05-27T11:52:26.064Z,3.35
2018-05-27T11:57:27.372Z,3.05
2018-05-27T12:02:28.702Z,3.22
2018-05-27T12:07:30.000Z,2.40
2018-05-27T12:12:31.263Z,5.20
2018-05-27T12:17:32.539Z,4.05
2018-05-27T12:22:33.831Z,2.97
2018-05-27T12:27:35.916Z,3.28
2018-05-27T12:32:37.171Z,3.20
2018-05-27T12:37:38.473Z,4.62
2018-05-27T12:42:40.543Z,3.45
2018-05-27T12:47:41.851Z,2.65
2018-05-27T12:52:43.123Z,2.70
2018-05-27T12:57:45.135Z,2.83
2018-05-27T13:02:46.471Z,2.92
2018-05-27T13:07:47.803Z,2.72
2018-05-27T13:12:49.855Z,3.95
2018-05-27T13:17:51.131Z,3.60
2018-05-27T13:22:52.474Z,3.87
2018-05-27T13:27:54.328Z,3.65
2018-05-27T13:32:55.645Z,3.62
2018-05-27T13:37:56.915Z,3.03
2018-05-27T13:42:58.172Z,3.25
2018-05-27T13:47:59.434Z,3.17
2018-05-27T13:53:00.709Z,2.75
2018-05-27T13:58:01.990Z,3.60
2018-05-27T14:03:03.283Z,4.93
2018-05-27T14:08:04.594Z,5.23
2018-05-27T14:13:05.922Z,4.53
2018-05-27T14:18:07.205Z,5.90
2018-05-27T14:23:08.496Z,3.33
2018-05-27T14:28:09.797Z,3.53
2018-05-27T14:33:11.113Z,3.73
2018-05-27T14:38:12.375Z,3.40
2018-05-27T14:43:13.655Z,3.73
2018-05-27T14:48:14.932Z,5.13
2018-05-27T14:53:16.200Z,4.80
2018-05-27T14:58:18.207Z,4.47
2018-05-27T15:03:19.484Z,3.70
2018-05-27T15:08:20.763Z,3.03
2018-05-27T15:13:22.096Z,3.73
2018-05-27T15:18:23.432Z,3.70
2018-05-27T15:23:24.721Z,3.47
2018-05-27T15:28:26.740Z,5.63
2018-05-27T15:33:28.002Z,3.77
2018-05-27T15:38:29.299Z,3.60
2018-05-27T15:43:30.560Z,4.80
2018-05-27T15:48:31.891Z,3.90
2018-05-27T15:53:33.955Z,4.80
2018-05-27T15:58:35.228Z,4.13
2018-05-27T16:03:36.518Z,5.53
2018-05-27T16:08:37.789Z,3.40
2018-05-27T16:13:39.831Z,4.57
2018-05-27T16:18:41.131Z,5.37
2018-05-27T16:23:42.422Z,3.97
2018-05-27T16:28:43.685Z,3.95
2018-05-27T16:33:44.962Z,3.30
2018-05-27T16:38:46.971Z,3.55
2018-05-27T16:43:48.275Z,3.80
2018-05-27T16:48:50.317Z,3.42
2018-05-27T16:53:51.595Z,3.47
2018-05-27T16:58:52.860Z,3.40
2018-05-27T17:03:54.164Z,3.28
2018-05-27T17:08:55.430Z,4.15
2018-05-27T17:13:56.699Z,3.95
2018-05-27T17:18:57.963Z,5.68
2018-05-27T17:24:00.001Z,3.22
2018-05-27T17:29:01.292Z,4.67
2018-05-27T17:34:02.593Z,3.73
2018-05-27T17:39:04.756Z,6.23
2018-05-27T17:44:06.087Z,7.00
2018-05-27T17:49:07.367Z,4.47
2018-05-27T17:54:08.632Z,4.17
2018-05-27T17:59:10.657Z,5.50
2018-05-27T18:04:12.016Z,7.17
2018-05-27T18:09:13.274Z,6.07
2018-05-27T18:14:14.573Z,5.63
2018-05-27T18:19:16.653Z,8.50
2018-05-27T18:24:17.909Z,6.53
2018-05-27T18:29:19.188Z,8.40
2018-05-27T18:34:20.473Z,8.40
2018-05-27T18:39:21.747Z,5.37
2018-05-27T18:44:23.028Z,7.33
2018-05-27T18:49:25.076Z,5.57
2018-05-27T18:54:26.387Z,7.83
2018-05-27T18:59:27.692Z,6.17
2018-05-27T19:04:28.988Z,7.60
2018-05-27T19:09:30.325Z,8.40
2018-05-27T19:14:31.600Z,7.37
2018-05-27T19:19:32.928Z,5.70
2018-05-27T19:24:34.249Z,8.33
2018-05-27T19:29:35.549Z,5.67
2018-05-27T19:34:36.819Z,5.20
2018-05-27T19:39:38.088Z,5.80
2018-05-27T19:44:39.392Z,6.50
2018-05-27T19:49:42.161Z,5.13
2018-05-27T19:54:43.496Z,7.00
2018-05-27T19:59:44.796Z,5.70
2018-05-27T20:04:46.084Z,6.60
2018-05-27T20:09:47.416Z,5.00
2018-05-27T20:14:48.688Z,6.00
2018-05-27T20:19:49.983Z,5.20
2018-05-27T20:24:51.282Z,7.17
2018-05-27T20:29:52.560Z,6.67
2018-05-27T20:34:53.863Z,5.07
2018-05-27T20:39:55.184Z,7.00
2018-05-27T20:44:56.470Z,4.90
2018-05-27T20:49:57.787Z,5.23
2018-05-27T20:54:59.024Z,5.23
2018-05-27T21:00:00.308Z,4.50
2018-05-27T21:05:02.345Z,5.37
2018-05-27T21:10:03.656Z,4.63
2018-05-27T21:15:05.704Z,4.90
2018-05-27T21:20:06.975Z,5.73
2018-05-27T21:25:08.241Z,4.87
2018-05-27T21:30:09.518Z,4.87
2018-05-27T21:35:11.540Z,9.83
2018-05-27T21:40:12.838Z,5.93
2018-05-27T21:45:14.104Z,5.93
2018-05-27T21:50:15.401Z,5.67
2018-05-27T21:55:16.675Z,8.20
2018-05-27T22:00:18.728Z,5.43
2018-05-27T22:05:20.023Z,5.87
2018-05-27T22:10:21.300Z,5.97
2018-05-27T22:15:22.594Z,5.57
2018-05-27T22:20:23.871Z,6.37
2018-05-27T22:25:25.142Z,5.97
2018-05-27T22:30:26.399Z,5.87
2018-05-27T22:35:27.683Z,9.00
2018-05-27T22:40:29.675Z,7.63
2018-05-27T22:45:31.694Z,5.87
2018-05-27T22:50:32.994Z,6.50
2018-05-27T22:55:34.242Z,7.13
2018-05-27T23:00:35.532Z,10.03
2018-05-27T23:05:36.859Z,11.07
2018-05-27T23:10:38.895Z,6.83
2018-05-27T23:15:40.195Z,6.10
2018-05-27T23:20:41.484Z,6.60
2018-05-27T23:25:43.528Z,9.53
2018-05-27T23:30:44.818Z,8.87
2018-05-27T23:35:46.853Z,6.13
2018-05-27T23:40:48.134Z,6.43
2018-05-27T23:45:49.431Z,6.27
2018-05-27T23:50:51.490Z,9.00
2018-05-27T23:55:53.467Z,6.90
